createdAt,value
2023-05-14T00:00:27.142Z,11.95
2023-05-14T00:02:54.288Z,10.75
2023-05-14T00:05:20.977Z,22.67
2023-05-14T00:07:47.629Z,23.27
2023-05-14T00:10:14.109Z,16.38
2023-05-14T00:12:40.874Z,18.85
2023-05-14T00:15:08.092Z,11.45
2023-05-14T00:17:34.533Z,14.45
2023-05-14T00:20:01.260Z,10.35
2023-05-14T00:22:27.655Z,10.95
2023-05-14T00:24:54.098Z,7.70
2023-05-14T00:27:20.511Z,11.95
2023-05-14T00:29:46.929Z,15.98
2023-05-14T00:32:13.336Z,12.13
2023-05-14T00:34:39.734Z,15.38
2023-05-14T00:37:06.222Z,12.52
2023-05-14T00:39:32.732Z,15.05
2023-05-14T00:41:59.247Z,11.68
2023-05-14T00:44:25.766Z,8.80
2023-05-14T00:46:52.942Z,8.52
2023-05-14T00:49:19.646Z,9.18
2023-05-14T00:51:47.093Z,8.38
2023-05-14T00:54:17.061Z,8.15
2023-05-14T00:56:45.902Z,12.02
2023-05-14T00:59:13.228Z,10.82
2023-05-14T01:01:40.093Z,8.90
2023-05-14T01:04:07.682Z,11.25
2023-05-14T01:06:47.435Z,11.43
2023-05-14T01:09:22.238Z,15.63
2023-05-14T01:12:03.110Z,7.95
2023-05-14T01:14:43.258Z,8.50
2023-05-14T01:17:13.145Z,9.90
2023-05-14T01:19:44.494Z,11.55
2023-05-14T01:22:11.750Z,11.07
2023-05-14T01:24:38.356Z,11.48
2023-05-14T01:27:13.228Z,11.10
2023-05-14T01:29:45.244Z,8.23
2023-05-14T01:32:13.448Z,9.52
2023-05-14T01:34:40.480Z,11.57
2023-05-14T01:37:09.400Z,14.15
2023-05-14T01:39:37.918Z,15.05
2023-05-14T01:42:05.194Z,9.82
2023-05-14T01:44:32.658Z,9.65
2023-05-14T01:46:59.149Z,9.50
2023-05-14T01:49:25.603Z,7.60
2023-05-14T01:51:52.034Z,14.45
2023-05-14T01:54:18.446Z,13.65
2023-05-14T01:56:44.899Z,20.02
2023-05-14T01:59:11.362Z,10.60
2023-05-14T02:01:37.839Z,9.68
2023-05-14T02:04:04.564Z,16.17
2023-05-14T02:06:32.175Z,9.18
2023-05-14T02:08:58.981Z,12.00
2023-05-14T02:11:26.196Z,11.05
2023-05-14T02:13:52.624Z,9.07
2023-05-14T02:16:19.326Z,14.55
2023-05-14T02:18:45.928Z,9.98
2023-05-14T02:21:12.424Z,8.80
2023-05-14T02:23:41.891Z,9.75
2023-05-14T02:26:10.011Z,9.98
2023-05-14T02:28:36.513Z,10.55
2023-05-14T02:31:03.196Z,10.07
2023-05-14T02:33:29.809Z,9.85
2023-05-14T02:35:56.363Z,10.50
2023-05-14T02:38:23.347Z,8.98
2023-05-14T02:40:49.943Z,9.60
2023-05-14T02:43:16.368Z,13.52
2023-05-14T02:45:43.019Z,12.13
2023-05-14T02:48:09.449Z,11.82
2023-05-14T02:50:35.871Z,11.13
2023-05-14T02:53:02.284Z,8.88
2023-05-14T02:55:28.792Z,9.13
2023-05-14T02:57:55.268Z,9.88
2023-05-14T03:00:22.052Z,11.05
2023-05-14T03:02:49.004Z,11.68
2023-05-14T03:05:15.817Z,20.95
2023-05-14T03:07:42.207Z,23.90
2023-05-14T03:10:09.099Z,22.80
2023-05-14T03:12:35.669Z,12.50
2023-05-14T03:15:02.186Z,18.05
2023-05-14T03:17:28.666Z,22.73
2023-05-14T03:19:55.093Z,20.85
2023-05-14T03:22:21.874Z,14.68
2023-05-14T03:24:48.254Z,12.35
2023-05-14T03:27:14.701Z,10.50
2023-05-14T03:29:41.108Z,9.27
2023-05-14T03:32:07.573Z,9.57
2023-05-14T03:34:34.164Z,11.30
2023-05-14T03:37:00.601Z,17.08
2023-05-14T03:39:26.990Z,9.95
2023-05-14T03:41:53.572Z,10.52
2023-05-14T03:44:19.965Z,9.48
2023-05-14T03:46:46.358Z,12.45
2023-05-14T03:49:12.853Z,15.00
2023-05-14T03:51:39.534Z,11.98
2023-05-14T03:54:06.998Z,10.40
2023-05-14T03:56:33.462Z,12.88
2023-05-14T03:58:59.848Z,14.65
2023-05-14T04:01:26.247Z,15.88
2023-05-14T04:03:52.793Z,10.65
2023-05-14T04:06:19.395Z,8.80
2023-05-14T04:08:45.823Z,18.02
2023-05-14T04:11:12.263Z,16.50
2023-05-14T04:13:38.706Z,23.73
2023-05-14T04:16:05.630Z,15.93
2023-05-14T04:18:35.276Z,14.27
2023-05-14T04:21:02.234Z,11.30
2023-05-14T04:23:29.683Z,9.75
2023-05-14T04:25:56.120Z,11.55
2023-05-14T04:28:22.567Z,19.25
2023-05-14T04:30:49.332Z,12.77
2023-05-14T04:33:15.732Z,11.57
2023-05-14T04:35:42.157Z,10.43
2023-05-14T04:38:09.107Z,7.57
2023-05-14T04:40:35.671Z,11.02
2023-05-14T04:43:02.068Z,11.77
2023-05-14T04:45:28.559Z,22.42
2023-05-14T04:47:55.095Z,17.77
2023-05-14T04:50:22.062Z,32.20
2023-05-14T04:52:48.780Z,31.60
2023-05-14T04:55:15.283Z,16.63
2023-05-14T04:57:41.722Z,16.33
2023-05-14T05:00:09.963Z,15.48
2023-05-14T05:02:36.457Z,13.88
2023-05-14T05:05:04.065Z,25.77
2023-05-14T05:07:30.624Z,21.88
2023-05-14T05:09:56.993Z,20.30
2023-05-14T05:12:23.381Z,13.07
2023-05-14T05:14:49.777Z,12.63
2023-05-14T05:17:16.154Z,12.77
2023-05-14T05:19:44.104Z,21.65
2023-05-14T05:22:10.914Z,17.15
2023-05-14T05:24:37.559Z,15.18
2023-05-14T05:27:05.395Z,14.95
2023-05-14T05:29:32.016Z,14.35
2023-05-14T05:31:58.985Z,31.33
2023-05-14T05:34:25.416Z,15.95
2023-05-14T05:36:51.782Z,26.60
2023-05-14T05:39:18.219Z,27.33
2023-05-14T05:41:44.741Z,28.92
2023-05-14T05:44:11.236Z,27.80
2023-05-14T05:46:37.797Z,26.40
2023-05-14T05:49:04.423Z,24.20
2023-05-14T05:51:31.459Z,24.15
2023-05-14T05:53:57.895Z,30.67
2023-05-14T05:56:24.262Z,27.35
2023-05-14T05:58:50.672Z,28.15
2023-05-14T06:01:17.061Z,30.92
2023-05-14T06:03:43.821Z,35.92
2023-05-14T06:06:11.247Z,28.98
2023-05-14T06:08:37.680Z,29.55
2023-05-14T06:11:04.623Z,26.77
2023-05-14T06:13:31.029Z,28.83
2023-05-14T06:15:57.489Z,32.53
2023-05-14T06:18:23.972Z,29.08
2023-05-14T06:20:50.427Z,27.73
2023-05-14T06:23:16.868Z,27.20
2023-05-14T06:25:43.358Z,30.95
2023-05-14T06:28:09.834Z,24.05
2023-05-14T06:30:36.234Z,27.33
2023-05-14T06:33:02.689Z,25.48
2023-05-14T06:35:29.229Z,22.80
2023-05-14T06:37:55.798Z,24.75
2023-05-14T06:40:22.591Z,15.88
2023-05-14T06:42:49.388Z,23.38
2023-05-14T06:45:15.862Z,22.83
2023-05-14T06:47:42.396Z,29.83
2023-05-14T06:50:10.814Z,22.25
2023-05-14T06:52:37.727Z,19.88
2023-05-14T06:55:04.392Z,19.08
2023-05-14T06:57:30.840Z,15.98
2023-05-14T06:59:57.479Z,20.63
2023-05-14T07:02:24.050Z,17.02
2023-05-14T07:04:50.500Z,18.23
2023-05-14T07:07:20.544Z,23.35
2023-05-14T07:09:47.636Z,23.60
2023-05-14T07:12:14.139Z,19.38
2023-05-14T07:14:40.552Z,21.30
2023-05-14T07:17:07.054Z,16.75
2023-05-14T07:19:33.523Z,19.60
2023-05-14T07:21:59.940Z,16.25
2023-05-14T07:24:26.420Z,23.13
2023-05-14T07:26:54.262Z,14.85
2023-05-14T07:29:30.317Z,18.48
2023-05-14T07:31:56.790Z,16.55
2023-05-14T07:34:23.186Z,21.02
2023-05-14T07:36:49.684Z,22.48
2023-05-14T07:39:16.092Z,24.10
2023-05-14T07:41:42.493Z,18.50
2023-05-14T07:44:09.079Z,21.00
2023-05-14T07:46:36.597Z,28.05
2023-05-14T07:49:03.243Z,23.50
2023-05-14T07:51:30.342Z,20.42
2023-05-14T07:53:56.738Z,20.77
2023-05-14T07:56:23.313Z,23.63
2023-05-14T07:58:51.011Z,15.10
2023-05-14T08:01:17.813Z,19.08
2023-05-14T08:03:44.315Z,21.02
2023-05-14T08:06:10.848Z,29.73
2023-05-14T08:08:37.331Z,23.13
2023-05-14T08:11:04.012Z,31.15
2023-05-14T08:13:30.503Z,17.55
2023-05-14T08:15:56.888Z,22.33
2023-05-14T08:18:23.312Z,23.10
2023-05-14T08:20:49.706Z,21.17
2023-05-14T08:23:16.138Z,21.85
2023-05-14T08:25:42.547Z,21.15
2023-05-14T08:28:09.052Z,24.63
2023-05-14T08:30:35.685Z,18.25
2023-05-14T08:33:02.354Z,21.70
2023-05-14T08:35:28.918Z,26.17
2023-05-14T08:37:56.835Z,27.50
2023-05-14T08:40:23.757Z,20.33
2023-05-14T08:42:51.474Z,20.90
2023-05-14T08:45:25.573Z,15.73
2023-05-14T08:47:52.092Z,16.55
2023-05-14T08:50:22.575Z,27.92
2023-05-14T08:52:49.847Z,21.23
2023-05-14T08:55:16.252Z,20.85
2023-05-14T08:57:42.713Z,17.17
2023-05-14T09:00:12.410Z,20.10
2023-05-14T09:02:44.442Z,20.83
2023-05-14T09:05:10.996Z,24.58
2023-05-14T09:07:37.408Z,13.60
2023-05-14T09:10:04.687Z,19.05
2023-05-14T09:12:31.352Z,19.13
2023-05-14T09:14:57.777Z,19.20
2023-05-14T09:17:27.864Z,20.25
2023-05-14T09:19:54.591Z,20.45
2023-05-14T09:22:21.142Z,16.58
2023-05-14T09:25:02.554Z,16.42
2023-05-14T09:27:31.769Z,13.93
2023-05-14T09:30:11.486Z,14.70
2023-05-14T09:32:40.291Z,15.20
2023-05-14T09:35:17.068Z,14.45
2023-05-14T09:37:45.420Z,14.77
2023-05-14T09:40:13.265Z,18.35
2023-05-14T09:42:40.804Z,14.80
2023-05-14T09:45:09.562Z,16.35
2023-05-14T09:47:37.627Z,16.65
2023-05-14T09:50:05.688Z,15.85
2023-05-14T09:52:32.693Z,11.80
2023-05-14T09:55:00.186Z,17.67
2023-05-14T09:57:27.233Z,20.75
2023-05-14T09:59:54.138Z,17.00
2023-05-14T10:02:36.808Z,19.90
2023-05-14T10:05:05.896Z,14.38
2023-05-14T10:07:41.688Z,19.42
2023-05-14T10:10:13.605Z,15.63
2023-05-14T10:12:40.739Z,17.77
2023-05-14T10:15:16.632Z,16.80
2023-05-14T10:17:55.402Z,18.42
2023-05-14T10:20:23.421Z,22.00
2023-05-14T10:22:51.124Z,16.55
2023-05-14T10:25:18.118Z,10.45
2023-05-14T10:27:45.152Z,12.35
2023-05-14T10:30:12.841Z,10.07
2023-05-14T10:32:41.846Z,13.82
2023-05-14T10:35:22.777Z,11.55
2023-05-14T10:37:51.783Z,12.27
2023-05-14T10:40:19.181Z,11.63
2023-05-14T10:42:46.618Z,12.25
2023-05-14T10:45:14.836Z,10.00
2023-05-14T10:47:48.308Z,10.88
2023-05-14T10:50:16.076Z,14.77
2023-05-14T10:52:43.872Z,12.50
2023-05-14T10:55:14.267Z,10.30
2023-05-14T10:57:43.463Z,15.23
2023-05-14T11:00:11.194Z,8.32
2023-05-14T11:02:40.618Z,12.50
2023-05-14T11:05:13.799Z,9.85
2023-05-14T11:07:48.090Z,9.25
2023-05-14T11:10:19.483Z,12.00
2023-05-14T11:12:48.005Z,7.75
2023-05-14T11:15:16.935Z,13.18
2023-05-14T11:17:44.956Z,9.60
2023-05-14T11:20:12.319Z,11.85
2023-05-14T11:22:40.765Z,8.30
2023-05-14T11:25:08.612Z,9.55
2023-05-14T11:27:36.689Z,11.15
2023-05-14T11:30:03.898Z,7.93
2023-05-14T11:32:33.136Z,7.53
2023-05-14T11:34:59.574Z,7.03
2023-05-14T11:37:26.028Z,8.68
2023-05-14T11:39:54.655Z,7.38
2023-05-14T11:42:22.406Z,6.38
2023-05-14T11:44:51.572Z,7.13
2023-05-14T11:47:19.697Z,4.20
2023-05-14T11:49:47.031Z,5.82
2023-05-14T11:52:15.369Z,11.43
2023-05-14T11:54:43.711Z,4.80
2023-05-14T11:57:15.503Z,10.60
2023-05-14T11:59:42.310Z,10.80
2023-05-14T12:02:11.983Z,8.57
2023-05-14T12:04:38.803Z,7.25
2023-05-14T12:07:10.133Z,6.40
2023-05-14T12:09:39.368Z,6.43
2023-05-14T12:12:11.319Z,9.40
2023-05-14T12:14:42.681Z,7.47
2023-05-14T12:17:15.019Z,12.02
2023-05-14T12:19:43.123Z,12.73
2023-05-14T12:22:11.402Z,6.47
2023-05-14T12:24:39.187Z,7.63
2023-05-14T12:27:07.306Z,6.78
2023-05-14T12:29:38.926Z,8.30
2023-05-14T12:32:09.812Z,7.05
2023-05-14T12:34:38.012Z,8.75
2023-05-14T12:37:05.560Z,7.45
2023-05-14T12:39:33.726Z,7.72
2023-05-14T12:42:00.422Z,8.68
2023-05-14T12:44:28.076Z,10.70
2023-05-14T12:46:54.830Z,11.38
2023-05-14T12:49:21.243Z,11.15
2023-05-14T12:51:47.666Z,11.25
2023-05-14T12:54:15.774Z,10.70
2023-05-14T12:56:42.383Z,14.88
2023-05-14T12:59:09.567Z,9.98
2023-05-14T13:01:36.845Z,9.50
2023-05-14T13:04:03.741Z,8.27
2023-05-14T13:06:31.778Z,10.73
2023-05-14T13:09:00.161Z,11.15
2023-05-14T13:11:27.216Z,6.78
2023-05-14T13:13:53.646Z,6.50
2023-05-14T13:16:20.133Z,5.82
2023-05-14T13:18:46.656Z,10.40
2023-05-14T13:21:13.111Z,7.05
2023-05-14T13:23:39.616Z,7.35
2023-05-14T13:26:06.199Z,8.35
2023-05-14T13:28:32.649Z,7.10
2023-05-14T13:31:10.652Z,5.97
2023-05-14T13:33:40.085Z,5.15
2023-05-14T13:36:08.016Z,10.38
2023-05-14T13:38:34.823Z,6.32
2023-05-14T13:41:03.991Z,7.65
2023-05-14T13:43:34.693Z,7.93
2023-05-14T13:46:02.260Z,6.25
2023-05-14T13:48:28.984Z,7.80
2023-05-14T13:50:55.430Z,7.15
2023-05-14T13:53:23.082Z,7.18
2023-05-14T13:55:50.555Z,3.97
2023-05-14T13:58:17.276Z,7.57
2023-05-14T14:00:43.714Z,6.40
2023-05-14T14:03:10.146Z,4.15
2023-05-14T14:05:36.765Z,9.00
2023-05-14T14:08:13.198Z,7.95
2023-05-14T14:10:49.000Z,4.35
2023-05-14T14:13:15.470Z,6.93
2023-05-14T14:15:42.518Z,4.70
2023-05-14T14:18:09.000Z,6.25
2023-05-14T14:20:35.426Z,6.82
2023-05-14T14:23:01.952Z,5.32
2023-05-14T14:25:28.360Z,7.13
2023-05-14T14:27:54.848Z,10.38
2023-05-14T14:30:21.367Z,9.00
2023-05-14T14:32:49.230Z,5.13
2023-05-14T14:35:17.880Z,8.75
2023-05-14T14:37:48.886Z,6.45
2023-05-14T14:40:16.538Z,6.53
2023-05-14T14:42:43.527Z,4.70
2023-05-14T14:45:10.735Z,5.05
2023-05-14T14:47:37.605Z,7.25
2023-05-14T14:50:04.863Z,9.98
2023-05-14T14:52:31.420Z,3.35
2023-05-14T14:54:57.966Z,4.43
2023-05-14T14:57:24.448Z,9.23
2023-05-14T14:59:50.887Z,4.95
2023-05-14T15:02:17.475Z,4.78
2023-05-14T15:04:44.041Z,4.32
2023-05-14T15:07:11.157Z,5.15
2023-05-14T15:09:37.674Z,10.77
2023-05-14T15:12:04.436Z,7.80
2023-05-14T15:14:30.834Z,7.70
2023-05-14T15:16:57.250Z,6.90
2023-05-14T15:19:23.656Z,4.70
2023-05-14T15:21:50.153Z,8.40
2023-05-14T15:24:16.585Z,7.32
2023-05-14T15:26:43.014Z,5.22
2023-05-14T15:29:09.474Z,7.22
2023-05-14T15:34:16.259Z,5.25
2023-05-14T15:36:42.691Z,5.95
2023-05-14T15:39:10.371Z,6.13
2023-05-14T15:41:37.082Z,5.72
2023-05-14T15:44:03.650Z,5.85
2023-05-14T15:46:30.944Z,5.53
2023-05-14T15:48:57.897Z,5.93
2023-05-14T15:51:24.373Z,4.97
2023-05-14T15:53:52.971Z,7.72
2023-05-14T15:56:19.657Z,6.65
2023-05-14T15:58:46.060Z,5.47
2023-05-14T16:01:12.584Z,6.90
2023-05-14T16:03:39.065Z,5.60
2023-05-14T16:06:06.009Z,7.38
2023-05-14T16:08:36.187Z,9.88
2023-05-14T16:11:04.516Z,12.20
2023-05-14T16:13:30.980Z,7.82
2023-05-14T16:15:59.400Z,5.55
2023-05-14T16:18:26.315Z,4.65
2023-05-14T16:20:53.414Z,6.65
2023-05-14T16:23:19.814Z,7.85
2023-05-14T16:25:46.329Z,5.47
2023-05-14T16:28:13.376Z,6.30
2023-05-14T16:30:39.829Z,6.25
2023-05-14T16:33:06.489Z,5.60
2023-05-14T16:35:36.190Z,6.68
2023-05-14T16:38:02.693Z,7.15
2023-05-14T16:40:29.087Z,7.57
2023-05-14T16:42:55.495Z,8.00
2023-05-14T16:45:22.075Z,6.28
2023-05-14T16:47:48.706Z,7.30
2023-05-14T16:50:15.377Z,8.70
2023-05-14T16:52:41.813Z,5.75
2023-05-14T16:55:08.744Z,8.07
2023-05-14T16:57:35.240Z,6.20
2023-05-14T17:00:04.467Z,6.28
2023-05-14T17:02:31.142Z,5.63
2023-05-14T17:04:59.019Z,5.72
2023-05-14T17:07:25.671Z,7.53
2023-05-14T17:09:52.143Z,8.60
2023-05-14T17:12:18.542Z,4.43
2023-05-14T17:14:45.112Z,7.28
2023-05-14T17:17:11.540Z,8.85
2023-05-14T17:19:37.964Z,5.28
2023-05-14T17:22:05.851Z,4.63
2023-05-14T17:24:32.313Z,5.22
2023-05-14T17:26:59.027Z,9.23
2023-05-14T17:29:25.680Z,7.45
2023-05-14T17:31:52.270Z,6.25
2023-05-14T17:34:18.930Z,4.30
2023-05-14T17:36:45.921Z,6.50
2023-05-14T17:39:12.451Z,5.35
2023-05-14T17:41:39.295Z,6.32
2023-05-14T17:44:05.769Z,8.25
2023-05-14T17:46:33.566Z,11.00
2023-05-14T17:49:00.189Z,4.63
2023-05-14T17:51:26.678Z,5.30
2023-05-14T17:53:53.277Z,4.22
2023-05-14T17:56:19.823Z,5.88
2023-05-14T17:58:46.524Z,6.07
2023-05-14T18:01:13.018Z,6.45
2023-05-14T18:03:39.480Z,5.60
2023-05-14T18:06:06.184Z,6.57
2023-05-14T18:08:32.604Z,4.18
2023-05-14T18:11:00.704Z,5.72
2023-05-14T18:13:27.361Z,4.22
2023-05-14T18:15:54.347Z,6.18
2023-05-14T18:18:21.735Z,3.35
2023-05-14T18:20:49.316Z,4.57
2023-05-14T18:23:15.929Z,5.85
2023-05-14T18:25:42.539Z,5.47
2023-05-14T18:28:09.498Z,5.90
2023-05-14T18:30:36.101Z,6.75
2023-05-14T18:33:02.632Z,4.55
2023-05-14T18:35:29.128Z,3.97
2023-05-14T18:37:55.608Z,4.55
2023-05-14T18:40:22.206Z,6.72
2023-05-14T18:42:48.660Z,5.40
2023-05-14T18:45:15.195Z,5.03
2023-05-14T18:47:41.728Z,5.07
2023-05-14T18:50:08.616Z,7.38
2023-05-14T18:52:35.304Z,5.40
2023-05-14T18:55:01.785Z,5.22
2023-05-14T18:57:29.361Z,6.88
2023-05-14T18:59:55.850Z,5.85
2023-05-14T19:02:24.477Z,4.47
2023-05-14T19:04:52.205Z,3.72
2023-05-14T19:07:20.111Z,3.33
2023-05-14T19:09:46.521Z,4.82
2023-05-14T19:12:13.341Z,4.43
2023-05-14T19:14:39.747Z,5.05
2023-05-14T19:17:06.282Z,6.85
2023-05-14T19:19:32.743Z,5.85
2023-05-14T19:21:59.223Z,13.93
2023-05-14T19:24:25.868Z,5.90
2023-05-14T19:26:52.521Z,7.22
2023-05-14T19:29:19.102Z,5.38
2023-05-14T19:31:45.555Z,6.18
2023-05-14T19:34:12.027Z,7.35
2023-05-14T19:36:38.518Z,3.60
2023-05-14T19:39:05.165Z,4.38
2023-05-14T19:41:31.625Z,4.32
2023-05-14T19:43:58.088Z,5.15
2023-05-14T19:46:24.612Z,3.95
2023-05-14T19:48:51.082Z,6.50
2023-05-14T19:51:17.522Z,3.90
2023-05-14T19:53:44.052Z,6.18
2023-05-14T19:56:10.855Z,5.97
2023-05-14T19:58:37.325Z,5.30
2023-05-14T20:01:04.345Z,4.65
2023-05-14T20:03:30.957Z,5.80
2023-05-14T20:05:57.940Z,3.95
2023-05-14T20:08:24.881Z,5.55
2023-05-14T20:10:51.421Z,4.47
2023-05-14T20:13:17.863Z,4.32
2023-05-14T20:15:44.339Z,4.25
2023-05-14T20:18:10.762Z,5.43
2023-05-14T20:20:37.370Z,6.72
2023-05-14T20:23:03.897Z,4.28
2023-05-14T20:25:32.880Z,4.18
2023-05-14T20:28:02.458Z,3.90
2023-05-14T20:30:28.938Z,4.72
2023-05-14T20:32:55.803Z,4.57
2023-05-14T20:35:22.250Z,4.93
2023-05-14T20:37:49.479Z,4.22
2023-05-14T20:40:15.981Z,3.95
2023-05-14T20:42:42.509Z,5.75
2023-05-14T20:45:09.464Z,4.20
2023-05-14T20:47:36.254Z,5.22
2023-05-14T20:50:02.873Z,4.97
2023-05-14T20:52:29.312Z,4.40
2023-05-14T20:54:55.734Z,5.72
2023-05-14T20:57:22.618Z,4.53
2023-05-14T20:59:49.090Z,4.10
2023-05-14T21:02:15.932Z,6.20
2023-05-14T21:04:42.818Z,4.28
2023-05-14T21:07:09.340Z,5.72
2023-05-14T21:09:35.757Z,7.53
2023-05-14T21:12:02.142Z,6.63
2023-05-14T21:14:28.563Z,4.43
2023-05-14T21:16:55.083Z,7.13
2023-05-14T21:19:22.838Z,7.35
2023-05-14T21:21:49.404Z,9.18
2023-05-14T21:24:16.778Z,9.77
2023-05-14T21:26:43.307Z,5.50
2023-05-14T21:29:09.769Z,6.97
2023-05-14T21:31:36.235Z,4.80
2023-05-14T21:34:02.832Z,7.72
2023-05-14T21:36:29.302Z,7.63
2023-05-14T21:38:55.781Z,6.00
2023-05-14T21:41:22.214Z,4.53
2023-05-14T21:43:48.600Z,6.30
2023-05-14T21:46:15.158Z,5.55
2023-05-14T21:48:41.783Z,6.40
2023-05-14T21:51:08.303Z,6.93
2023-05-14T21:53:34.862Z,8.98
2023-05-14T21:56:01.289Z,12.02
2023-05-14T21:58:28.043Z,6.15
2023-05-14T22:00:54.535Z,7.47
2023-05-14T22:03:21.030Z,6.25
2023-05-14T22:05:47.738Z,5.82
2023-05-14T22:08:14.154Z,8.93
2023-05-14T22:10:40.851Z,7.88
2023-05-14T22:13:07.310Z,6.40
2023-05-14T22:15:34.430Z,8.73
2023-05-14T22:18:00.978Z,7.95
2023-05-14T22:20:27.431Z,11.48
2023-05-14T22:22:53.974Z,7.00
2023-05-14T22:25:20.407Z,6.85
2023-05-14T22:27:46.843Z,6.10
2023-05-14T22:30:13.406Z,5.88
2023-05-14T22:32:39.876Z,7.32
2023-05-14T22:35:06.511Z,5.57
2023-05-14T22:37:32.973Z,5.75
2023-05-14T22:39:59.419Z,6.20
2023-05-14T22:42:27.214Z,12.13
2023-05-14T22:44:53.718Z,12.07
2023-05-14T22:47:20.225Z,9.77
2023-05-14T22:49:46.924Z,12.52
2023-05-14T22:52:13.385Z,10.77
2023-05-14T22:54:39.839Z,10.18
2023-05-14T22:57:06.693Z,8.82
2023-05-14T22:59:33.254Z,9.50
2023-05-14T23:02:01.260Z,11.75
2023-05-14T23:04:27.738Z,6.57
2023-05-14T23:06:54.177Z,8.18
2023-05-14T23:09:20.760Z,13.18
2023-05-14T23:11:47.344Z,9.43
2023-05-14T23:14:13.766Z,8.82
2023-05-14T23:16:40.196Z,8.48
2023-05-14T23:19:06.796Z,9.52
2023-05-14T23:21:33.430Z,8.82
2023-05-14T23:23:59.829Z,8.07
2023-05-14T23:26:26.252Z,17.77
2023-05-14T23:28:52.703Z,10.18
2023-05-14T23:31:19.146Z,8.25
2023-05-14T23:33:46.324Z,14.45
2023-05-14T23:36:12.877Z,10.40
2023-05-14T23:38:39.930Z,10.18
2023-05-14T23:41:06.346Z,12.50
2023-05-14T23:43:33.745Z,13.23
2023-05-14T23:46:00.642Z,19.17
2023-05-14T23:48:27.161Z,18.02
2023-05-14T23:50:53.683Z,13.75
2023-05-14T23:53:20.355Z,11.00
2023-05-14T23:55:47.085Z,20.10
2023-05-14T23:58:13.617Z,19.75
